• Join FlightAware (Why Join?)
  • Login
  • US Flag 
10:33AM EDT


 

Airport Tracker/Info


-or-


 

Live Flight TrackerFlight Track Log ✈ ASQ5740 ✈ 15-Jun-2013 ✈ KCHS - KORD

Flight Track Log - Related Links

Times and Time Zones

All times are in EDT time to prevent confusion due to time zone crossing. See the ASQ5740 flight status page for this flight to view local times or setup timezone preferences in your user account.

Time Position Orientation Groundspeed Altitude Reporting Facility
EDT Latitude Longitude Course Direction KTS MPH feet Rate Location/Type
07:22PM 33.0056 -80.0739 314° West 216 249 3,800  Level Jacksonville Center
07:23PM 33.1211 -80.1358 335° Northwest  Level FlightAware Approximate
07:23PM 33.0669 -80.1114 333° Northwest 251 289 6,500  Level Jacksonville Center
07:24PM 33.1982 -80.1786 335° Northwest  Level FlightAware Approximate
07:24PM 33.1328 -80.1567 330° Northwest 265 305 8,400  Level Jacksonville Center
07:25PM 33.2755 -80.2211 337° Northwest  Level FlightAware Approximate
07:25PM 33.2047 -80.2039 331° Northwest 279 321 10,500  Level Jacksonville Center
07:26PM 33.3473 -80.2709 309° West  Level FlightAware Approximate
07:26PM 33.2747 -80.2542 329° Northwest 290 334 12,400  Level Jacksonville Center
07:27PM 33.4003 -80.3504 314° West  Level FlightAware Approximate
07:27PM 33.3467 -80.3067 329° Northwest 295 339 13,900  Level Jacksonville Center
07:28PM 33.4228 -80.3592 330° Northwest 302 348 15,300 1,440 Climbing Jacksonville Center
07:29PM 33.5011 -80.4142 330° Northwest 312 359 16,800 1,320 Climbing Jacksonville Center
07:30PM 33.5794 -80.4694 330° Northwest 318 366 18,000 1,140 Climbing Jacksonville Center
07:31PM 33.6597 -80.5269 329° Northwest 329 379 19,100 1,140 Climbing Jacksonville Center
07:32PM 33.7403 -80.5847 329° Northwest 329 379 20,300 1,140 Climbing Jacksonville Center
07:33PM 33.8225 -80.6428 330° Northwest 329 379 21,400 1,020 Climbing Jacksonville Center
07:34PM 33.9050 -80.7031 329° Northwest 336 387 22,400 840 Climbing Jacksonville Center
07:35PM 33.9875 -80.7586 331° Northwest 341 392 23,100 660 Climbing Jacksonville Center
07:36PM 34.0719 -80.8242 327° Northwest 341 392 23,800 660 Climbing Jacksonville Center
07:37PM 34.2222 -80.9261 331° Northwest 337 388 25,000 600 Climbing Atlanta Center
07:38PM 34.3136 -80.9906 330° Northwest 354 407 25,500 480 Climbing Atlanta Center
07:39PM 34.4050 -81.0603 328° Northwest 377 434 26,000 240 Climbing Atlanta Center
07:40PM 34.4944 -81.1278 328° Northwest 384 442 26,000  Level Atlanta Center
07:41PM 34.5942 -81.1950 331° Northwest 401 461 26,000  Level Atlanta Center
07:42PM 34.6894 -81.2650 329° Northwest 409 471 26,000  Level Atlanta Center
07:43PM 34.7850 -81.3353 329° Northwest 404 465 26,000  Level Atlanta Center
07:44PM 34.8867 -81.4078 330° Northwest 392 451 26,000  Level Atlanta Center
07:45PM 34.9758 -81.4761 328° Northwest 392 451 26,000  Level Atlanta Center
07:46PM 35.0647 -81.5392 330° Northwest 392 451 26,000  Level Atlanta Center
07:47PM 35.1536 -81.6050 329° Northwest 382 440 26,000  Level Atlanta Center
07:48PM 35.2425 -81.6686 330° Northwest 376 433 26,000  Level Atlanta Center
07:49PM 35.3294 -81.7322 329° Northwest 370 426 26,000  Level Atlanta Center
07:50PM 35.4142 -81.7989 327° Northwest 365 420 26,000  Level Atlanta Center
07:51PM 35.4922 -81.8553 330° Northwest 365 420 26,000  Level Atlanta Center
07:52PM 35.5769 -81.9169 329° Northwest 365 420 26,000  Level Atlanta Center
07:53PM 35.6633 -81.9811 329° Northwest 365 420 26,000  Level Atlanta Center
07:54PM 35.7481 -82.0431 329° Northwest 365 420 26,000  Level Atlanta Center
07:55PM 35.8428 -82.1125 329° Northwest 360 414 26,000  Level Atlanta Center
07:57PM 35.9942 -82.2253 329° Northwest 358 412 26,000  Level Indianapolis Center
07:58PM 36.0817 -82.2900 329° Northwest 363 418 26,000  Level Indianapolis Center
07:59PM 36.1672 -82.3561 328° Northwest 364 419 26,000  Level Indianapolis Center
08:00PM 36.2528 -82.4203 329° Northwest 360 414 26,000  Level Indianapolis Center
08:01PM 36.3408 -82.4867 329° Northwest 367 422 26,000  Level Indianapolis Center
08:02PM 36.4289 -82.5542 328° Northwest 368 423 26,000  Level Indianapolis Center
08:03PM 36.5169 -82.6211 329° Northwest 370 426 26,000  Level Indianapolis Center
08:04PM 36.6200 -82.7006 328° Northwest 372 428 26,000  Level Indianapolis Center
08:05PM 36.7089 -82.7692 328° Northwest 374 430 26,000  Level Indianapolis Center
08:06PM 36.7969 -82.8369 328° Northwest 371 427 26,000  Level Indianapolis Center
08:07PM 36.8900 -82.9092 328° Northwest 378 435 26,000  Level Indianapolis Center
08:08PM 36.9678 -82.9700 328° Northwest 380 437 26,000  Level Indianapolis Center
08:09PM 37.0714 -83.0497 328° Northwest 373 429 26,000  Level Indianapolis Center
08:11PM 37.1600 -83.1183 328° Northwest 373 429 26,000  Level Indianapolis Center
08:12PM 37.2478 -83.1869 328° Northwest 372 428 26,000  Level Indianapolis Center
08:13PM 37.3356 -83.2556 328° Northwest 372 428 26,000  Level Indianapolis Center
08:14PM 37.4239 -83.3253 328° Northwest 372 428 26,000  Level Indianapolis Center
08:15PM 37.5114 -83.3939 328° Northwest 371 427 26,000  Level Indianapolis Center
08:16PM 37.5997 -83.4642 328° Northwest 373 429 26,000  Level Indianapolis Center
08:17PM 37.6878 -83.5339 328° Northwest 373 429 26,000  Level Indianapolis Center
08:18PM 37.7758 -83.6042 328° Northwest 373 429 26,000  Level Indianapolis Center
08:19PM 37.8639 -83.6739 328° Northwest 373 429 26,000  Level Indianapolis Center
08:20PM 37.9517 -83.7428 328° Northwest 372 428 26,000  Level Indianapolis Center
08:21PM 38.0528 -83.8228 328° Northwest 366 421 26,000  Level Indianapolis Center
08:22PM 38.1358 -83.8917 327° Northwest 357 411 26,000  Level Indianapolis Center
08:23PM 38.2183 -83.9583 328° Northwest 353 406 26,000  Level Indianapolis Center
08:24PM 38.2983 -84.0225 328° Northwest 344 396 26,000  Level Indianapolis Center
08:25PM 38.3786 -84.0881 327° Northwest 341 392 26,000  Level Indianapolis Center
08:26PM 38.4592 -84.1536 327° Northwest 341 392 26,000  Level Indianapolis Center
08:27PM 38.5389 -84.2203 327° Northwest 343 395 26,000  Level Indianapolis Center
08:28PM 38.6225 -84.2794 331° Northwest 342 394 26,000  Level Indianapolis Center
08:29PM 38.7094 -84.3422 331° Northwest 342 394 26,000  Level Indianapolis Center
08:30PM 38.7933 -84.4036 330° Northwest 342 394 26,000  Level Indianapolis Center
08:31PM 38.8781 -84.4633 331° Northwest 341 392 26,000  Level Indianapolis Center
08:32PM 38.9606 -84.5261 329° Northwest 341 392 26,000  Level Indianapolis Center
08:33PM 39.0447 -84.5872 331° Northwest 342 394 26,000  Level Indianapolis Center
08:34PM 39.1281 -84.6483 330° Northwest 341 392 26,000  Level Indianapolis Center
08:35PM 39.2097 -84.7094 330° Northwest 337 388 26,000  Level Indianapolis Center
08:36PM 39.2944 -84.7708 331° Northwest 342 394 26,000  Level Indianapolis Center
08:37PM 39.3797 -84.8350 330° Northwest 348 400 26,000  Level Indianapolis Center
08:38PM 39.4589 -84.8931 330° Northwest 349 402 26,000  Level Indianapolis Center
08:39PM 39.5592 -84.9686 330° Northwest 349 402 26,000  Level Indianapolis Center
08:40PM 39.6439 -85.0317 330° Northwest 351 404 26,000  Level Indianapolis Center
08:41PM 39.7283 -85.0958 330° Northwest 352 405 26,000  Level Indianapolis Center
08:42PM 39.8128 -85.1594 330° Northwest 353 406 26,000  Level Indianapolis Center
08:43PM 39.9003 -85.2253 330° Northwest 363 418 26,000  Level Indianapolis Center
08:44PM 39.9911 -85.2936 330° Northwest 375 432 26,000  Level Indianapolis Center
08:45PM 40.0858 -85.3658 330° Northwest 390 449 26,000  Level Indianapolis Center
08:46PM 40.1822 -85.4392 330° Northwest 400 460 26,000  Level Indianapolis Center
08:47PM 40.2783 -85.5158 329° Northwest 407 468 26,000  Level Indianapolis Center
08:48PM 40.3667 -85.6481 311° West 407 468 26,000  Level Indianapolis Center
08:49PM 40.4408 -85.7606 311° West 406 467 26,000  Level Indianapolis Center
08:50PM 40.5147 -85.8725 311° West 410 472 26,000 -60 Level Indianapolis Center
08:51PM 40.5883 -85.9853 311° West 411 473 25,900 -600 Descending Indianapolis Center
08:52PM 40.6647 -86.1000 311° West 416 479 24,900 -1,080 Descending Indianapolis Center
08:53PM 40.7417 -86.2169 311° West 423 487 23,800 -960 Descending Indianapolis Center
08:54PM 40.8161 -86.3350 310° West 422 486 23,000 -420 Descending Indianapolis Center
08:55PM 40.8908 -86.4489 311° West 414 476 23,000 -300 Level Indianapolis Center
08:57PM 40.9892 -86.6025 310° West 413 475 22,400 -1,320 Descending Chicago Center
08:58PM 41.0600 -86.7133 310° West 395 455 20,100 -2,160 Descending Chicago Center
08:59PM 41.1258 -86.8142 311° West 380 437 18,000 -2,100 Descending Chicago Center
09:00PM 41.1961 -86.9253 310° West 392 451 15,800 -2,400 Descending Chicago Center
09:01PM 41.2769 -87.0533 310° West 380 437 13,200 -2,100 Descending Chicago Center
09:02PM 41.3392 -87.1539 310° West 360 414 11,500 -1,080 Descending Chicago Center
09:03PM 41.4053 -87.2411 315° West 344 396 11,000 -300 Descending Chicago Center
09:04PM 41.4750 -87.3250 318° Northwest 341 392 11,000  Level Chicago Center
09:05PM 41.5467 -87.4075 319° Northwest 344 396 11,000 -60 Level Chicago Center
09:06PM 41.6328 -87.5028 320° Northwest 340 391 10,900 -480 Descending Chicago Center
09:07PM 41.7025 -87.5797 321° Northwest 328 377 10,100 -840 Descending Chicago Center
09:08PM 41.7583 -87.6439 319° Northwest 272 313 9,200 -960 Descending Chicago Center
09:09PM 41.8156 -87.7047 322° Northwest 266 306 8,200 -960 Descending Chicago Center
09:10PM 41.8864 -87.7072 358° North 257 296 7,300 -600 Descending Chicago Center
09:11PM 41.9458 -87.7056 North 223 257 7,000 -480 Descending Chicago Center
09:12PM 42.0069 -87.6919 North 194 223 6,400 -840 Descending Chicago Center
09:13PM 42.0489 -87.7094 343° North 188 216 5,400 -1,200 Descending Chicago Center
09:14PM 42.0847 -87.7503 320° Northwest 175 201 4,000 -1,380 Descending Chicago Center